WZZ7937 EDDH-EPGD
Flight info
| Callsign | WZZ7937 |
|---|---|
| Flight time | 1h 0m |
| Altitude | 35000 |
| Route | RAMAR6G/33 RAMAR L23 GEVNI DCT BINKA DCT LUXAL L730 KOSEX |
| Aircraft | A321/M-SDE3FGHIRWY/LB1 |
Departure
| Time | 2026-04-30 18:03 |
|---|---|
| Airport | Hamburg Helmut Schmidt Airport (EDDH) |
Arrival
| Time | 2026-04-30 19:03 |
|---|---|
| Airport | Gdańsk Lech Wałęsa Airport (EPGD) |
| Time | Latitude | Longitude | Altitude | Speed | Heading |
|---|---|---|---|---|---|
| 2026-04-30 17:39 | 53.62740 | 10.00308 | 48 ft | 0 kts | 63° |
| 2026-04-30 17:55 | 53.62721 | 10.00224 | 44 ft | 3 kts | 83° |
| 2026-04-30 17:56 | 53.62729 | 10.00172 | 44 ft | 0 kts | 153° |
| 2026-04-30 17:58 | 53.62672 | 10.00221 | 48 ft | 8 kts | 153° |
| 2026-04-30 17:59 | 53.62604 | 10.00264 | 48 ft | 0 kts | 187° |
| 2026-04-30 18:00 | 53.62603 | 10.00263 | 48 ft | 1 kts | 188° |
| 2026-04-30 18:00 | 53.62551 | 10.00132 | 46 ft | 14 kts | 248° |
| 2026-04-30 18:01 | 53.62558 | 10.00014 | 45 ft | 0 kts | 333° |
| 2026-04-30 18:02 | 53.63897 | 9.98853 | 50 ft | 162 kts | 335° |
| 2026-04-30 18:03 | 53.66912 | 9.96289 | 1925 ft | 169 kts | 335° |
| 2026-04-30 18:04 | 53.70830 | 9.94686 | 2784 ft | 217 kts | 2° |
| 2026-04-30 18:05 | 53.75309 | 10.00931 | 4778 ft | 247 kts | 65° |
| 2026-04-30 18:06 | 53.78380 | 10.11921 | 7779 ft | 262 kts | 76° |
| 2026-04-30 18:07 | 53.77629 | 10.24379 | 10644 ft | 279 kts | 97° |
| 2026-04-30 18:08 | 53.76630 | 10.35230 | 11347 ft | 336 kts | 97° |
| 2026-04-30 18:09 | 53.75156 | 10.51187 | 14008 ft | 350 kts | 97° |
| 2026-04-30 18:10 | 53.73609 | 10.67556 | 16410 ft | 362 kts | 97° |
| 2026-04-30 18:11 | 53.71973 | 10.84662 | 18765 ft | 376 kts | 97° |
| 2026-04-30 18:11 | 53.71194 | 10.97994 | 20250 ft | 383 kts | 84° |
| 2026-04-30 18:12 | 53.71629 | 11.11600 | 21763 ft | 391 kts | 84° |
| 2026-04-30 18:13 | 53.71903 | 11.20847 | 22684 ft | 398 kts | 84° |
| 2026-04-30 18:13 | 53.72254 | 11.33282 | 24279 ft | 393 kts | 84° |
| 2026-04-30 18:14 | 53.72527 | 11.43842 | 25939 ft | 377 kts | 84° |
| 2026-04-30 18:15 | 53.72850 | 11.56712 | 28242 ft | 353 kts | 83° |
| 2026-04-30 18:15 | 53.73140 | 11.68744 | 30009 ft | 340 kts | 83° |
| 2026-04-30 18:16 | 53.73329 | 11.76768 | 30622 ft | 344 kts | 83° |
| 2026-04-30 18:16 | 53.73513 | 11.84892 | 31159 ft | 348 kts | 83° |
| 2026-04-30 18:17 | 53.73608 | 11.88979 | 31426 ft | 349 kts | 83° |
| 2026-04-30 18:17 | 53.73705 | 11.93082 | 31693 ft | 351 kts | 83° |
| 2026-04-30 18:17 | 53.73901 | 12.01462 | 31963 ft | 363 kts | 84° |
| 2026-04-30 18:18 | 53.73997 | 12.05756 | 32087 ft | 369 kts | 84° |
| 2026-04-30 18:18 | 53.74096 | 12.10128 | 32247 ft | 376 kts | 84° |
| 2026-04-30 18:18 | 53.74195 | 12.14573 | 32376 ft | 382 kts | 84° |
| 2026-04-30 18:18 | 53.74295 | 12.19089 | 32505 ft | 388 kts | 84° |
| 2026-04-30 18:19 | 53.74397 | 12.23677 | 32637 ft | 394 kts | 84° |
| 2026-04-30 18:19 | 53.74503 | 12.28392 | 32772 ft | 399 kts | 84° |
| 2026-04-30 18:19 | 53.74607 | 12.33110 | 32908 ft | 405 kts | 84° |
| 2026-04-30 18:19 | 53.74710 | 12.37894 | 33044 ft | 410 kts | 84° |
| 2026-04-30 18:20 | 53.74811 | 12.42747 | 33182 ft | 416 kts | 84° |
| 2026-04-30 18:20 | 53.74914 | 12.47657 | 33318 ft | 421 kts | 84° |
| 2026-04-30 18:20 | 53.75007 | 12.52625 | 33455 ft | 426 kts | 85° |
| 2026-04-30 18:20 | 53.75082 | 12.57658 | 33592 ft | 431 kts | 85° |
| 2026-04-30 18:21 | 53.75146 | 12.62739 | 33762 ft | 435 kts | 85° |
| 2026-04-30 18:21 | 53.75206 | 12.67875 | 34019 ft | 437 kts | 85° |
| 2026-04-30 18:21 | 53.75265 | 12.73014 | 34352 ft | 437 kts | 85° |
| 2026-04-30 18:21 | 53.75323 | 12.78135 | 34664 ft | 437 kts | 85° |
| 2026-04-30 18:22 | 53.75387 | 12.83268 | 34951 ft | 436 kts | 85° |
| 2026-04-30 18:22 | 53.75535 | 12.93505 | 35396 ft | 436 kts | 85° |
| 2026-04-30 18:22 | 53.75611 | 12.98610 | 35441 ft | 434 kts | 85° |
| 2026-04-30 18:23 | 53.75758 | 13.08803 | 35437 ft | 433 kts | 85° |
| 2026-04-30 18:23 | 53.75888 | 13.18974 | 35436 ft | 432 kts | 85° |
| 2026-04-30 18:24 | 53.76060 | 13.34155 | 35440 ft | 431 kts | 85° |
| 2026-04-30 18:25 | 53.76159 | 13.44307 | 35441 ft | 432 kts | 85° |
| 2026-04-30 18:25 | 53.76230 | 13.59548 | 35443 ft | 433 kts | 86° |
| 2026-04-30 18:26 | 53.76175 | 13.74888 | 35468 ft | 433 kts | 86° |
| 2026-04-30 18:27 | 53.76137 | 13.90122 | 35458 ft | 432 kts | 85° |
| 2026-04-30 18:28 | 53.76081 | 14.05332 | 35455 ft | 431 kts | 86° |
| 2026-04-30 18:28 | 53.76004 | 14.18818 | 35462 ft | 431 kts | 86° |
| 2026-04-30 18:29 | 53.76817 | 14.38730 | 35456 ft | 422 kts | 78° |
| 2026-04-30 18:30 | 53.78342 | 14.58470 | 35452 ft | 422 kts | 78° |
| 2026-04-30 18:31 | 53.79449 | 14.73238 | 35441 ft | 422 kts | 78° |
| 2026-04-30 18:32 | 53.80534 | 14.87966 | 35431 ft | 418 kts | 78° |
| 2026-04-30 18:33 | 53.81608 | 15.02593 | 35432 ft | 418 kts | 78° |
| 2026-04-30 18:33 | 53.82659 | 15.17275 | 35436 ft | 419 kts | 78° |
| 2026-04-30 18:34 | 53.83688 | 15.31991 | 35437 ft | 420 kts | 78° |
| 2026-04-30 18:35 | 53.84368 | 15.41809 | 35443 ft | 420 kts | 78° |
| 2026-04-30 18:35 | 53.85038 | 15.51635 | 35441 ft | 420 kts | 78° |
| 2026-04-30 18:36 | 53.86032 | 15.66393 | 35354 ft | 421 kts | 78° |
| 2026-04-30 18:36 | 53.86681 | 15.76212 | 34860 ft | 419 kts | 78° |
| 2026-04-30 18:37 | 53.87002 | 15.81123 | 34622 ft | 419 kts | 78° |
| 2026-04-30 18:37 | 53.87325 | 15.86091 | 34375 ft | 419 kts | 78° |
| 2026-04-30 18:37 | 53.87645 | 15.90999 | 34142 ft | 419 kts | 78° |
| 2026-04-30 18:37 | 53.87961 | 15.95892 | 33867 ft | 416 kts | 78° |
| 2026-04-30 18:38 | 53.88271 | 16.00761 | 33420 ft | 417 kts | 78° |
| 2026-04-30 18:38 | 53.88582 | 16.05672 | 32644 ft | 419 kts | 78° |
| 2026-04-30 18:38 | 53.88895 | 16.10591 | 31865 ft | 421 kts | 78° |
| 2026-04-30 18:38 | 53.89207 | 16.15547 | 31042 ft | 425 kts | 78° |
| 2026-04-30 18:39 | 53.89518 | 16.20537 | 30130 ft | 428 kts | 78° |
| 2026-04-30 18:39 | 53.89828 | 16.25574 | 29340 ft | 428 kts | 78° |
| 2026-04-30 18:39 | 53.90128 | 16.30540 | 28875 ft | 420 kts | 78° |
| 2026-04-30 18:39 | 53.90422 | 16.35429 | 28320 ft | 414 kts | 78° |
| 2026-04-30 18:40 | 53.90710 | 16.40261 | 27773 ft | 409 kts | 78° |
| 2026-04-30 18:40 | 53.90994 | 16.45029 | 27236 ft | 404 kts | 78° |
| 2026-04-30 18:40 | 53.91311 | 16.49731 | 26719 ft | 397 kts | 74° |
| 2026-04-30 18:40 | 53.92003 | 16.54189 | 26138 ft | 387 kts | 65° |
| 2026-04-30 18:41 | 53.93122 | 16.58270 | 25584 ft | 378 kts | 56° |
| 2026-04-30 18:41 | 53.94534 | 16.61988 | 25040 ft | 372 kts | 53° |
| 2026-04-30 18:41 | 53.95948 | 16.65639 | 24504 ft | 369 kts | 53° |
| 2026-04-30 18:41 | 53.97344 | 16.69276 | 23969 ft | 367 kts | 53° |
| 2026-04-30 18:42 | 53.98728 | 16.72901 | 23397 ft | 363 kts | 53° |
| 2026-04-30 18:42 | 54.01449 | 16.80043 | 22383 ft | 355 kts | 53° |
| 2026-04-30 18:42 | 54.02783 | 16.83546 | 21912 ft | 352 kts | 53° |
| 2026-04-30 18:45 | 54.10815 | 17.20597 | 17124 ft | 334 kts | 78° |
| 2026-04-30 18:45 | 54.11032 | 17.24518 | 16635 ft | 331 kts | 79° |
| 2026-04-30 18:45 | 54.11248 | 17.28403 | 16128 ft | 328 kts | 79° |
| 2026-04-30 18:46 | 54.11462 | 17.32265 | 15652 ft | 326 kts | 79° |
| 2026-04-30 18:46 | 54.11667 | 17.36031 | 15494 ft | 313 kts | 79° |
| 2026-04-30 18:46 | 54.11861 | 17.39649 | 15355 ft | 300 kts | 79° |
| 2026-04-30 18:46 | 54.12046 | 17.43169 | 15220 ft | 289 kts | 78° |
| 2026-04-30 18:47 | 54.12225 | 17.46538 | 14949 ft | 283 kts | 78° |
| 2026-04-30 18:47 | 54.12405 | 17.49854 | 14709 ft | 280 kts | 78° |
| 2026-04-30 18:47 | 54.12587 | 17.53142 | 14470 ft | 278 kts | 77° |
| 2026-04-30 18:47 | 54.12913 | 17.56363 | 14236 ft | 275 kts | 73° |
| 2026-04-30 18:48 | 54.13263 | 17.59566 | 13964 ft | 274 kts | 74° |
| 2026-04-30 18:48 | 54.13601 | 17.62763 | 13703 ft | 274 kts | 74° |
| 2026-04-30 18:48 | 54.13936 | 17.65963 | 13421 ft | 274 kts | 74° |
| 2026-04-30 18:48 | 54.14270 | 17.69147 | 13063 ft | 273 kts | 74° |
| 2026-04-30 18:49 | 54.14602 | 17.72326 | 12693 ft | 272 kts | 74° |
| 2026-04-30 18:49 | 54.14935 | 17.75503 | 12326 ft | 273 kts | 74° |
| 2026-04-30 18:49 | 54.15265 | 17.78685 | 11947 ft | 272 kts | 75° |
| 2026-04-30 18:49 | 54.15595 | 17.81865 | 11561 ft | 272 kts | 75° |
| 2026-04-30 18:50 | 54.15922 | 17.85034 | 11187 ft | 271 kts | 75° |
| 2026-04-30 18:50 | 54.16250 | 17.88205 | 10825 ft | 271 kts | 75° |
| 2026-04-30 18:50 | 54.16576 | 17.91368 | 10457 ft | 271 kts | 75° |
| 2026-04-30 18:50 | 54.16902 | 17.94535 | 10062 ft | 270 kts | 75° |
| 2026-04-30 18:51 | 54.17225 | 17.97688 | 9682 ft | 269 kts | 75° |
| 2026-04-30 18:51 | 54.17547 | 18.00834 | 9309 ft | 269 kts | 75° |
| 2026-04-30 18:51 | 54.17867 | 18.03973 | 8940 ft | 268 kts | 75° |
| 2026-04-30 18:51 | 54.18185 | 18.07119 | 8373 ft | 274 kts | 76° |
| 2026-04-30 18:52 | 54.18509 | 18.10339 | 8017 ft | 272 kts | 76° |
| 2026-04-30 18:52 | 54.18827 | 18.13512 | 7651 ft | 271 kts | 76° |
| 2026-04-30 18:52 | 54.19146 | 18.16681 | 7271 ft | 271 kts | 76° |
| 2026-04-30 18:52 | 54.19464 | 18.19839 | 7028 ft | 266 kts | 76° |
| 2026-04-30 18:53 | 54.19777 | 18.22951 | 7017 ft | 267 kts | 76° |
| 2026-04-30 18:53 | 54.20094 | 18.26082 | 7021 ft | 267 kts | 76° |
| 2026-04-30 18:53 | 54.20414 | 18.29260 | 6744 ft | 268 kts | 76° |
| 2026-04-30 18:53 | 54.20723 | 18.32373 | 6442 ft | 264 kts | 76° |
| 2026-04-30 18:54 | 54.21024 | 18.35436 | 6180 ft | 259 kts | 77° |
| 2026-04-30 18:54 | 54.21320 | 18.38441 | 5921 ft | 254 kts | 77° |
| 2026-04-30 18:54 | 54.21610 | 18.41395 | 5669 ft | 250 kts | 77° |
| 2026-04-30 18:54 | 54.21892 | 18.44295 | 5410 ft | 246 kts | 77° |
| 2026-04-30 18:55 | 54.22171 | 18.47147 | 5149 ft | 241 kts | 77° |
| 2026-04-30 18:55 | 54.22707 | 18.52648 | 4668 ft | 231 kts | 77° |
| 2026-04-30 18:55 | 54.22968 | 18.55359 | 4407 ft | 231 kts | 77° |
| 2026-04-30 18:56 | 54.23488 | 18.60749 | 3898 ft | 227 kts | 77° |
| 2026-04-30 18:56 | 54.23737 | 18.63370 | 3644 ft | 221 kts | 77° |
| 2026-04-30 18:56 | 54.23974 | 18.65911 | 3408 ft | 211 kts | 77° |
| 2026-04-30 18:57 | 54.24404 | 18.70659 | 3019 ft | 198 kts | 76° |
| 2026-04-30 18:57 | 54.24950 | 18.72726 | 3009 ft | 189 kts | 43° |
| 2026-04-30 18:57 | 54.26078 | 18.73743 | 3028 ft | 184 kts | 12° |
| 2026-04-30 18:58 | 54.28485 | 18.74403 | 3006 ft | 166 kts | 359° |
| 2026-04-30 18:58 | 54.29625 | 18.74221 | 3014 ft | 164 kts | 346° |
| 2026-04-30 18:58 | 54.30656 | 18.73414 | 3018 ft | 164 kts | 325° |
| 2026-04-30 18:59 | 54.31907 | 18.70148 | 3036 ft | 168 kts | 297° |
| 2026-04-30 19:00 | 54.33247 | 18.64762 | 2447 ft | 149 kts | 296° |
| 2026-04-30 19:00 | 54.33636 | 18.63203 | 2252 ft | 136 kts | 296° |
| 2026-04-30 19:00 | 54.34386 | 18.60226 | 1920 ft | 137 kts | 296° |
| 2026-04-30 19:01 | 54.35015 | 18.57712 | 1611 ft | 135 kts | 296° |
| 2026-04-30 19:01 | 54.35390 | 18.56216 | 1448 ft | 137 kts | 295° |
| 2026-04-30 19:02 | 54.36132 | 18.53219 | 1066 ft | 136 kts | 294° |
| 2026-04-30 19:02 | 54.36878 | 18.50174 | 669 ft | 139 kts | 293° |
| 2026-04-30 19:03 | 54.37565 | 18.47401 | 462 ft | 87 kts | 292° |
| 2026-04-30 19:03 | 54.37799 | 18.46766 | 453 ft | 9 kts | 321° |
| 2026-04-30 19:04 | 54.37919 | 18.46615 | 452 ft | 13 kts | 328° |
| 2026-04-30 19:04 | 54.38080 | 18.46655 | 452 ft | 6 kts | 21° |
| 2026-04-30 19:05 | 54.38107 | 18.46675 | 452 ft | 0 kts | 23° |